sensor_id;sensor_type;location;lat;lon;timestamp;temperature;humidity
69335;SHT31;56477;52.742;15.242;2023-06-14T00:02:11;13.73;82.04
69335;SHT31;56477;52.742;15.242;2023-06-14T00:04:37;13.66;82.27
69335;SHT31;56477;52.742;15.242;2023-06-14T00:07:05;13.66;82.25
69335;SHT31;56477;52.742;15.242;2023-06-14T00:09:33;13.63;82.41
69335;SHT31;56477;52.742;15.242;2023-06-14T00:11:59;13.61;82.49
69335;SHT31;56477;52.742;15.242;2023-06-14T00:14:25;13.63;82.60
69335;SHT31;56477;52.742;15.242;2023-06-14T00:16:51;13.64;82.52
69335;SHT31;56477;52.742;15.242;2023-06-14T00:19:18;13.61;82.71
69335;SHT31;56477;52.742;15.242;2023-06-14T00:21:45;13.64;82.64
69335;SHT31;56477;52.742;15.242;2023-06-14T00:24:11;13.70;82.56
69335;SHT31;56477;52.742;15.242;2023-06-14T00:26:37;13.71;82.43
69335;SHT31;56477;52.742;15.242;2023-06-14T00:29:03;13.73;82.42
69335;SHT31;56477;52.742;15.242;2023-06-14T00:31:29;13.78;82.29
69335;SHT31;56477;52.742;15.242;2023-06-14T00:33:55;13.81;82.07
69335;SHT31;56477;52.742;15.242;2023-06-14T00:36:21;13.84;82.11
69335;SHT31;56477;52.742;15.242;2023-06-14T00:38:47;13.84;82.14
69335;SHT31;56477;52.742;15.242;2023-06-14T00:41:13;13.82;82.19
69335;SHT31;56477;52.742;15.242;2023-06-14T00:43:39;13.88;82.33
69335;SHT31;56477;52.742;15.242;2023-06-14T00:46:05;13.89;82.39
69335;SHT31;56477;52.742;15.242;2023-06-14T00:48:31;13.94;82.29
69335;SHT31;56477;52.742;15.242;2023-06-14T00:51:00;14.00;82.10
69335;SHT31;56477;52.742;15.242;2023-06-14T00:53:30;14.07;81.87
69335;SHT31;56477;52.742;15.242;2023-06-14T00:56:00;14.14;81.55
69335;SHT31;56477;52.742;15.242;2023-06-14T00:58:26;14.18;81.28
69335;SHT31;56477;52.742;15.242;2023-06-14T01:00:52;14.25;80.98
69335;SHT31;56477;52.742;15.242;2023-06-14T01:03:18;14.26;80.79
69335;SHT31;56477;52.742;15.242;2023-06-14T01:05:53;14.25;80.70
69335;SHT31;56477;52.742;15.242;2023-06-14T01:08:51;14.30;80.45
69335;SHT31;56477;52.742;15.242;2023-06-14T01:11:26;14.33;80.37
69335;SHT31;56477;52.742;15.242;2023-06-14T01:13:55;14.40;80.35
69335;SHT31;56477;52.742;15.242;2023-06-14T01:16:22;14.40;80.29
69335;SHT31;56477;52.742;15.242;2023-06-14T01:18:49;14.36;80.36
69335;SHT31;56477;52.742;15.242;2023-06-14T01:21:24;14.40;80.29
69335;SHT31;56477;52.742;15.242;2023-06-14T01:23:51;14.39;80.22
69335;SHT31;56477;52.742;15.242;2023-06-14T01:26:19;14.43;80.11
69335;SHT31;56477;52.742;15.242;2023-06-14T01:28:46;14.45;80.01
69335;SHT31;56477;52.742;15.242;2023-06-14T01:31:18;14.42;80.15
69335;SHT31;56477;52.742;15.242;2023-06-14T01:33:45;14.45;80.15
69335;SHT31;56477;52.742;15.242;2023-06-14T01:36:12;14.43;80.31
69335;SHT31;56477;52.742;15.242;2023-06-14T01:38:38;14.42;80.14
69335;SHT31;56477;52.742;15.242;2023-06-14T01:41:05;14.40;80.27
69335;SHT31;56477;52.742;15.242;2023-06-14T01:43:32;14.39;80.23
69335;SHT31;56477;52.742;15.242;2023-06-14T01:46:00;14.45;80.10
69335;SHT31;56477;52.742;15.242;2023-06-14T01:48:26;14.38;80.23
69335;SHT31;56477;52.742;15.242;2023-06-14T01:50:52;14.28;80.50
69335;SHT31;56477;52.742;15.242;2023-06-14T01:53:18;14.32;80.68
69335;SHT31;56477;52.742;15.242;2023-06-14T01:55:44;14.35;80.32
69335;SHT31;56477;52.742;15.242;2023-06-14T01:58:14;14.35;80.35
69335;SHT31;56477;52.742;15.242;2023-06-14T02:00:42;14.32;80.50
69335;SHT31;56477;52.742;15.242;2023-06-14T02:03:09;14.32;80.43
69335;SHT31;56477;52.742;15.242;2023-06-14T02:05:35;14.25;80.48
69335;SHT31;56477;52.742;15.242;2023-06-14T02:08:01;14.22;80.75
69335;SHT31;56477;52.742;15.242;2023-06-14T02:10:28;14.19;80.83
69335;SHT31;56477;52.742;15.242;2023-06-14T02:12:54;14.09;81.05
69335;SHT31;56477;52.742;15.242;2023-06-14T02:15:20;14.11;81.15
69335;SHT31;56477;52.742;15.242;2023-06-14T02:17:47;14.07;81.33
69335;SHT31;56477;52.742;15.242;2023-06-14T02:20:13;14.05;81.32
69335;SHT31;56477;52.742;15.242;2023-06-14T02:22:40;13.97;81.77
69335;SHT31;56477;52.742;15.242;2023-06-14T02:25:06;13.97;81.63
69335;SHT31;56477;52.742;15.242;2023-06-14T02:27:33;13.92;81.71
69335;SHT31;56477;52.742;15.242;2023-06-14T02:29:59;13.94;81.62
69335;SHT31;56477;52.742;15.242;2023-06-14T02:32:26;13.85;82.07
69335;SHT31;56477;52.742;15.242;2023-06-14T02:34:55;13.70;82.62
69335;SHT31;56477;52.742;15.242;2023-06-14T02:37:20;13.57;83.32
69335;SHT31;56477;52.742;15.242;2023-06-14T02:39:46;13.46;83.88
69335;SHT31;56477;52.742;15.242;2023-06-14T02:42:12;13.49;83.64
69335;SHT31;56477;52.742;15.242;2023-06-14T02:44:38;13.56;83.31
69335;SHT31;56477;52.742;15.242;2023-06-14T02:47:05;13.66;83.05
69335;SHT31;56477;52.742;15.242;2023-06-14T02:49:31;13.68;83.01
69335;SHT31;56477;52.742;15.242;2023-06-14T02:51:57;13.51;83.64
69335;SHT31;56477;52.742;15.242;2023-06-14T02:54:23;13.46;83.89
69335;SHT31;56477;52.742;15.242;2023-06-14T02:56:49;13.40;84.08
69335;SHT31;56477;52.742;15.242;2023-06-14T02:59:16;13.36;84.18
69335;SHT31;56477;52.742;15.242;2023-06-14T03:01:42;13.32;84.28
69335;SHT31;56477;52.742;15.242;2023-06-14T03:04:08;13.20;84.91
69335;SHT31;56477;52.742;15.242;2023-06-14T03:06:34;13.18;85.25
69335;SHT31;56477;52.742;15.242;2023-06-14T03:09:01;13.20;85.20
69335;SHT31;56477;52.742;15.242;2023-06-14T03:11:30;13.23;85.24
69335;SHT31;56477;52.742;15.242;2023-06-14T03:13:56;13.30;84.69
69335;SHT31;56477;52.742;15.242;2023-06-14T03:16:22;13.40;84.28
69335;SHT31;56477;52.742;15.242;2023-06-14T03:18:53;13.49;83.88
69335;SHT31;56477;52.742;15.242;2023-06-14T03:21:19;13.53;83.74
69335;SHT31;56477;52.742;15.242;2023-06-14T03:23:47;13.57;83.66
69335;SHT31;56477;52.742;15.242;2023-06-14T03:26:13;13.61;83.44
69335;SHT31;56477;52.742;15.242;2023-06-14T03:28:40;13.66;83.00
69335;SHT31;56477;52.742;15.242;2023-06-14T03:31:06;13.61;82.86
69335;SHT31;56477;52.742;15.242;2023-06-14T03:33:32;13.66;82.85
69335;SHT31;56477;52.742;15.242;2023-06-14T03:35:58;13.68;82.62
69335;SHT31;56477;52.742;15.242;2023-06-14T03:38:25;13.70;82.44
69335;SHT31;56477;52.742;15.242;2023-06-14T03:40:50;13.71;82.35
69335;SHT31;56477;52.742;15.242;2023-06-14T03:43:16;13.74;82.33
69335;SHT31;56477;52.742;15.242;2023-06-14T03:45:42;13.75;82.28
69335;SHT31;56477;52.742;15.242;2023-06-14T03:48:09;13.81;82.01
69335;SHT31;56477;52.742;15.242;2023-06-14T03:50:35;13.80;81.99
69335;SHT31;56477;52.742;15.242;2023-06-14T03:53:04;13.78;82.08
69335;SHT31;56477;52.742;15.242;2023-06-14T03:55:30;13.74;82.31
69335;SHT31;56477;52.742;15.242;2023-06-14T03:57:59;13.73;82.36
69335;SHT31;56477;52.742;15.242;2023-06-14T04:00:25;13.73;82.27
69335;SHT31;56477;52.742;15.242;2023-06-14T04:02:52;13.73;82.51
69335;SHT31;56477;52.742;15.242;2023-06-14T04:05:18;13.74;82.20
69335;SHT31;56477;52.742;15.242;2023-06-14T04:07:46;13.78;82.22
69335;SHT31;56477;52.742;15.242;2023-06-14T04:10:15;13.78;82.09
69335;SHT31;56477;52.742;15.242;2023-06-14T04:12:42;13.88;82.09
69335;SHT31;56477;52.742;15.242;2023-06-14T04:15:08;13.89;81.95
69335;SHT31;56477;52.742;15.242;2023-06-14T04:17:36;13.92;82.00
69335;SHT31;56477;52.742;15.242;2023-06-14T04:20:03;13.92;81.92
69335;SHT31;56477;52.742;15.242;2023-06-14T04:22:32;13.94;82.05
69335;SHT31;56477;52.742;15.242;2023-06-14T04:24:58;14.00;81.98
69335;SHT31;56477;52.742;15.242;2023-06-14T04:27:26;13.95;82.01
69335;SHT31;56477;52.742;15.242;2023-06-14T04:29:53;13.94;82.08
69335;SHT31;56477;52.742;15.242;2023-06-14T04:32:28;14.00;82.08
69335;SHT31;56477;52.742;15.242;2023-06-14T04:35:07;14.01;82.00
69335;SHT31;56477;52.742;15.242;2023-06-14T04:37:34;14.02;82.14
69335;SHT31;56477;52.742;15.242;2023-06-14T04:40:00;14.11;81.75
69335;SHT31;56477;52.742;15.242;2023-06-14T04:42:26;14.07;81.98
69335;SHT31;56477;52.742;15.242;2023-06-14T04:44:56;14.15;81.75
69335;SHT31;56477;52.742;15.242;2023-06-14T04:47:23;14.21;81.47
69335;SHT31;56477;52.742;15.242;2023-06-14T04:49:56;14.24;81.32
69335;SHT31;56477;52.742;15.242;2023-06-14T04:52:22;14.33;81.12
69335;SHT31;56477;52.742;15.242;2023-06-14T04:54:52;14.45;81.03
69335;SHT31;56477;52.742;15.242;2023-06-14T04:57:19;14.39;81.12
69335;SHT31;56477;52.742;15.242;2023-06-14T04:59:48;14.43;81.08
69335;SHT31;56477;52.742;15.242;2023-06-14T05:02:14;14.46;81.12
69335;SHT31;56477;52.742;15.242;2023-06-14T05:04:40;14.55;80.61
69335;SHT31;56477;52.742;15.242;2023-06-14T05:07:09;14.62;81.02
69335;SHT31;56477;52.742;15.242;2023-06-14T05:09:36;14.65;80.61
69335;SHT31;56477;52.742;15.242;2023-06-14T05:12:03;14.65;80.29
69335;SHT31;56477;52.742;15.242;2023-06-14T05:14:29;14.63;80.27
69335;SHT31;56477;52.742;15.242;2023-06-14T05:16:55;14.65;80.21
69335;SHT31;56477;52.742;15.242;2023-06-14T05:19:21;14.69;80.05
69335;SHT31;56477;52.742;15.242;2023-06-14T05:21:47;14.66;80.13
69335;SHT31;56477;52.742;15.242;2023-06-14T05:24:14;14.63;80.35
69335;SHT31;56477;52.742;15.242;2023-06-14T05:26:40;14.55;80.54
69335;SHT31;56477;52.742;15.242;2023-06-14T05:29:07;14.57;80.94
69335;SHT31;56477;52.742;15.242;2023-06-14T05:31:34;14.65;80.67
69335;SHT31;56477;52.742;15.242;2023-06-14T05:34:01;14.62;80.72
69335;SHT31;56477;52.742;15.242;2023-06-14T05:36:27;14.67;80.63
69335;SHT31;56477;52.742;15.242;2023-06-14T05:38:54;14.59;80.72
69335;SHT31;56477;52.742;15.242;2023-06-14T05:41:27;14.62;80.96
69335;SHT31;56477;52.742;15.242;2023-06-14T05:43:54;14.60;81.14
69335;SHT31;56477;52.742;15.242;2023-06-14T05:46:21;14.63;81.24
69335;SHT31;56477;52.742;15.242;2023-06-14T05:48:53;14.66;81.17
69335;SHT31;56477;52.742;15.242;2023-06-14T05:51:20;14.70;81.05
69335;SHT31;56477;52.742;15.242;2023-06-14T05:53:46;14.72;81.02
69335;SHT31;56477;52.742;15.242;2023-06-14T05:56:13;14.76;80.92
69335;SHT31;56477;52.742;15.242;2023-06-14T05:58:39;14.77;80.67
69335;SHT31;56477;52.742;15.242;2023-06-14T06:01:05;14.80;80.69
69335;SHT31;56477;52.742;15.242;2023-06-14T06:03:31;14.80;80.84
69335;SHT31;56477;52.742;15.242;2023-06-14T06:05:58;14.79;80.94
69335;SHT31;56477;52.742;15.242;2023-06-14T06:08:24;14.81;80.84
69335;SHT31;56477;52.742;15.242;2023-06-14T06:10:50;14.86;80.99
69335;SHT31;56477;52.742;15.242;2023-06-14T06:13:16;14.83;81.01
69335;SHT31;56477;52.742;15.242;2023-06-14T06:15:42;14.81;80.98
69335;SHT31;56477;52.742;15.242;2023-06-14T06:18:08;14.80;81.28
69335;SHT31;56477;52.742;15.242;2023-06-14T06:20:34;14.83;81.13
69335;SHT31;56477;52.742;15.242;2023-06-14T06:23:02;14.86;81.09
69335;SHT31;56477;52.742;15.242;2023-06-14T06:25:28;14.90;80.86
69335;SHT31;56477;52.742;15.242;2023-06-14T06:27:55;14.88;81.14
69335;SHT31;56477;52.742;15.242;2023-06-14T06:30:24;14.93;81.16
69335;SHT31;56477;52.742;15.242;2023-06-14T06:32:51;14.97;81.22
69335;SHT31;56477;52.742;15.242;2023-06-14T06:35:17;14.98;81.20
69335;SHT31;56477;52.742;15.242;2023-06-14T06:37:43;14.93;81.43
69335;SHT31;56477;52.742;15.242;2023-06-14T06:40:09;14.98;81.32
69335;SHT31;56477;52.742;15.242;2023-06-14T06:42:36;14.96;81.22
69335;SHT31;56477;52.742;15.242;2023-06-14T06:45:03;15.01;80.93
69335;SHT31;56477;52.742;15.242;2023-06-14T06:47:29;15.11;80.37
69335;SHT31;56477;52.742;15.242;2023-06-14T06:49:55;15.12;80.49
69335;SHT31;56477;52.742;15.242;2023-06-14T06:52:21;15.25;80.61
69335;SHT31;56477;52.742;15.242;2023-06-14T06:54:47;15.30;80.48
69335;SHT31;56477;52.742;15.242;2023-06-14T06:57:12;15.35;80.40
69335;SHT31;56477;52.742;15.242;2023-06-14T06:59:39;15.35;79.66
69335;SHT31;56477;52.742;15.242;2023-06-14T07:02:06;15.44;79.90
69335;SHT31;56477;52.742;15.242;2023-06-14T07:04:32;15.45;79.88
69335;SHT31;56477;52.742;15.242;2023-06-14T07:06:58;15.46;79.59
69335;SHT31;56477;52.742;15.242;2023-06-14T07:09:24;15.44;79.12
69335;SHT31;56477;52.742;15.242;2023-06-14T07:11:50;15.46;78.93
69335;SHT31;56477;52.742;15.242;2023-06-14T07:14:16;15.46;78.74
69335;SHT31;56477;52.742;15.242;2023-06-14T07:16:42;15.54;78.48
69335;SHT31;56477;52.742;15.242;2023-06-14T07:19:09;15.59;78.27
69335;SHT31;56477;52.742;15.242;2023-06-14T07:21:36;15.61;77.90
69335;SHT31;56477;52.742;15.242;2023-06-14T07:24:05;15.69;77.95
69335;SHT31;56477;52.742;15.242;2023-06-14T07:26:35;15.73;78.30
69335;SHT31;56477;52.742;15.242;2023-06-14T07:29:01;15.76;78.03
69335;SHT31;56477;52.742;15.242;2023-06-14T07:31:27;15.83;78.18
69335;SHT31;56477;52.742;15.242;2023-06-14T07:33:54;15.87;77.98
69335;SHT31;56477;52.742;15.242;2023-06-14T07:36:19;15.93;77.51
69335;SHT31;56477;52.742;15.242;2023-06-14T07:38:46;15.93;77.84
69335;SHT31;56477;52.742;15.242;2023-06-14T07:41:12;16.06;77.33
69335;SHT31;56477;52.742;15.242;2023-06-14T07:43:38;16.14;77.10
69335;SHT31;56477;52.742;15.242;2023-06-14T07:46:04;16.16;77.33
69335;SHT31;56477;52.742;15.242;2023-06-14T07:48:30;16.25;76.73
69335;SHT31;56477;52.742;15.242;2023-06-14T07:50:56;16.41;76.49
69335;SHT31;56477;52.742;15.242;2023-06-14T07:53:22;16.54;75.81
69335;SHT31;56477;52.742;15.242;2023-06-14T07:55:48;16.61;75.49
69335;SHT31;56477;52.742;15.242;2023-06-14T07:58:15;16.69;75.46
69335;SHT31;56477;52.742;15.242;2023-06-14T08:00:41;16.81;75.17
69335;SHT31;56477;52.742;15.242;2023-06-14T08:03:07;16.98;74.85
69335;SHT31;56477;52.742;15.242;2023-06-14T08:05:33;17.08;73.73
69335;SHT31;56477;52.742;15.242;2023-06-14T08:08:00;17.20;73.33
69335;SHT31;56477;52.742;15.242;2023-06-14T08:10:26;17.29;73.27
69335;SHT31;56477;52.742;15.242;2023-06-14T08:12:52;17.33;72.85
69335;SHT31;56477;52.742;15.242;2023-06-14T08:15:18;17.34;73.24
69335;SHT31;56477;52.742;15.242;2023-06-14T08:17:44;17.26;73.34
69335;SHT31;56477;52.742;15.242;2023-06-14T08:20:12;17.27;72.73
69335;SHT31;56477;52.742;15.242;2023-06-14T08:22:38;17.40;73.08
69335;SHT31;56477;52.742;15.242;2023-06-14T08:25:05;17.37;73.29
69335;SHT31;56477;52.742;15.242;2023-06-14T08:27:32;17.46;72.93
69335;SHT31;56477;52.742;15.242;2023-06-14T08:29:58;17.39;72.34
69335;SHT31;56477;52.742;15.242;2023-06-14T08:32:24;17.41;72.59
69335;SHT31;56477;52.742;15.242;2023-06-14T08:34:50;17.36;72.28
69335;SHT31;56477;52.742;15.242;2023-06-14T08:37:16;17.48;72.78
69335;SHT31;56477;52.742;15.242;2023-06-14T08:39:42;17.54;72.77
69335;SHT31;56477;52.742;15.242;2023-06-14T08:42:09;17.64;72.07
69335;SHT31;56477;52.742;15.242;2023-06-14T08:44:36;17.71;72.42
69335;SHT31;56477;52.742;15.242;2023-06-14T08:47:03;17.84;71.59
69335;SHT31;56477;52.742;15.242;2023-06-14T08:49:29;18.04;71.17
69335;SHT31;56477;52.742;15.242;2023-06-14T08:51:58;18.12;70.84
69335;SHT31;56477;52.742;15.242;2023-06-14T08:54:28;18.10;71.20
69335;SHT31;56477;52.742;15.242;2023-06-14T08:57:00;18.22;71.08
69335;SHT31;56477;52.742;15.242;2023-06-14T08:59:26;18.26;70.46
69335;SHT31;56477;52.742;15.242;2023-06-14T09:01:54;18.43;70.47
69335;SHT31;56477;52.742;15.242;2023-06-14T09:04:23;18.59;69.10
69335;SHT31;56477;52.742;15.242;2023-06-14T09:06:56;18.56;69.38
69335;SHT31;56477;52.742;15.242;2023-06-14T09:09:22;18.71;69.12
69335;SHT31;56477;52.742;15.242;2023-06-14T09:11:52;18.93;68.60
69335;SHT31;56477;52.742;15.242;2023-06-14T09:14:19;18.97;68.00
69335;SHT31;56477;52.742;15.242;2023-06-14T09:16:45;19.04;67.98
69335;SHT31;56477;52.742;15.242;2023-06-14T09:19:21;19.14;67.50
69335;SHT31;56477;52.742;15.242;2023-06-14T09:21:49;19.08;67.97
69335;SHT31;56477;52.742;15.242;2023-06-14T09:24:15;19.18;67.91
69335;SHT31;56477;52.742;15.242;2023-06-14T09:26:41;19.36;66.80
69335;SHT31;56477;52.742;15.242;2023-06-14T09:29:09;19.56;66.18
69335;SHT31;56477;52.742;15.242;2023-06-14T09:31:35;19.73;65.13
69335;SHT31;56477;52.742;15.242;2023-06-14T09:34:02;20.10;64.17
69335;SHT31;56477;52.742;15.242;2023-06-14T09:36:32;20.11;64.38
69335;SHT31;56477;52.742;15.242;2023-06-14T09:39:02;20.45;63.10
69335;SHT31;56477;52.742;15.242;2023-06-14T09:43:59;20.86;62.66
69335;SHT31;56477;52.742;15.242;2023-06-14T09:46:30;21.10;62.09
69335;SHT31;56477;52.742;15.242;2023-06-14T09:48:59;20.83;61.62
69335;SHT31;56477;52.742;15.242;2023-06-14T09:51:27;20.62;61.72
69335;SHT31;56477;52.742;15.242;2023-06-14T09:53:55;21.20;62.32
69335;SHT31;56477;52.742;15.242;2023-06-14T09:56:29;21.30;62.35
69335;SHT31;56477;52.742;15.242;2023-06-14T09:58:58;21.31;61.05
69335;SHT31;56477;52.742;15.242;2023-06-14T10:01:25;22.67;59.70
69335;SHT31;56477;52.742;15.242;2023-06-14T10:04:02;22.75;56.17
69335;SHT31;56477;52.742;15.242;2023-06-14T10:06:29;22.74;56.99
69335;SHT31;56477;52.742;15.242;2023-06-14T10:08:59;22.16;57.92
69335;SHT31;56477;52.742;15.242;2023-06-14T10:11:28;22.01;58.52
69335;SHT31;56477;52.742;15.242;2023-06-14T10:13:58;21.84;59.91
69335;SHT31;56477;52.742;15.242;2023-06-14T10:16:30;21.68;59.23
69335;SHT31;56477;52.742;15.242;2023-06-14T10:24:30;21.43;59.52
69335;SHT31;56477;52.742;15.242;2023-06-14T10:26:58;21.57;58.69
69335;SHT31;56477;52.742;15.242;2023-06-14T10:29:28;21.54;58.84
69335;SHT31;56477;52.742;15.242;2023-06-14T10:31:59;21.47;57.89
69335;SHT31;56477;52.742;15.242;2023-06-14T10:34:29;21.78;58.07
69335;SHT31;56477;52.742;15.242;2023-06-14T10:37:11;22.16;56.41
69335;SHT31;56477;52.742;15.242;2023-06-14T10:39:42;22.57;56.74
69335;SHT31;56477;52.742;15.242;2023-06-14T10:42:10;22.87;55.62
69335;SHT31;56477;52.742;15.242;2023-06-14T10:44:46;23.55;53.88
69335;SHT31;56477;52.742;15.242;2023-06-14T10:47:33;23.66;53.00
69335;SHT31;56477;52.742;15.242;2023-06-14T10:50:07;23.90;51.02
69335;SHT31;56477;52.742;15.242;2023-06-14T10:52:38;23.86;51.62
69335;SHT31;56477;52.742;15.242;2023-06-14T10:55:10;24.01;50.94
69335;SHT31;56477;52.742;15.242;2023-06-14T10:57:39;23.87;50.70
69335;SHT31;56477;52.742;15.242;2023-06-14T11:00:06;23.74;50.41
69335;SHT31;56477;52.742;15.242;2023-06-14T11:11:08;22.78;52.54
69335;SHT31;56477;52.742;15.242;2023-06-14T11:13:39;22.67;52.93
69335;SHT31;56477;52.742;15.242;2023-06-14T11:16:12;22.59;53.23
69335;SHT31;56477;52.742;15.242;2023-06-14T11:18:39;22.06;52.24
69335;SHT31;56477;52.742;15.242;2023-06-14T11:21:05;22.15;53.26
69335;SHT31;56477;52.742;15.242;2023-06-14T11:23:32;22.17;53.89
69335;SHT31;56477;52.742;15.242;2023-06-14T11:25:57;22.16;53.62
69335;SHT31;56477;52.742;15.242;2023-06-14T11:28:24;22.32;53.78
69335;SHT31;56477;52.742;15.242;2023-06-14T11:31:01;22.36;54.08
69335;SHT31;56477;52.742;15.242;2023-06-14T11:33:27;22.43;54.42
69335;SHT31;56477;52.742;15.242;2023-06-14T11:35:52;22.59;53.49
69335;SHT31;56477;52.742;15.242;2023-06-14T11:38:19;22.70;53.56
69335;SHT31;56477;52.742;15.242;2023-06-14T11:40:45;22.90;53.17
69335;SHT31;56477;52.742;15.242;2023-06-14T11:43:11;23.01;53.28
69335;SHT31;56477;52.742;15.242;2023-06-14T11:45:38;23.00;53.05
69335;SHT31;56477;52.742;15.242;2023-06-14T11:48:06;23.22;53.05
69335;SHT31;56477;52.742;15.242;2023-06-14T11:50:32;23.33;52.44
69335;SHT31;56477;52.742;15.242;2023-06-14T11:53:00;23.26;52.81
69335;SHT31;56477;52.742;15.242;2023-06-14T11:55:36;23.26;52.39
69335;SHT31;56477;52.742;15.242;2023-06-14T11:58:03;23.92;52.42
69335;SHT31;56477;52.742;15.242;2023-06-14T12:00:29;24.20;50.90
69335;SHT31;56477;52.742;15.242;2023-06-14T12:02:56;24.48;50.42
69335;SHT31;56477;52.742;15.242;2023-06-14T12:05:23;24.52;50.32
69335;SHT31;56477;52.742;15.242;2023-06-14T12:07:50;24.06;51.05
69335;SHT31;56477;52.742;15.242;2023-06-14T12:10:19;24.06;50.26
69335;SHT31;56477;52.742;15.242;2023-06-14T12:12:45;23.81;51.04
69335;SHT31;56477;52.742;15.242;2023-06-14T12:15:11;24.07;50.47
69335;SHT31;56477;52.742;15.242;2023-06-14T12:17:38;23.69;49.90
69335;SHT31;56477;52.742;15.242;2023-06-14T12:20:11;23.63;50.26
69335;SHT31;56477;52.742;15.242;2023-06-14T12:22:56;23.65;50.85
69335;SHT31;56477;52.742;15.242;2023-06-14T12:25:32;23.51;51.02
69335;SHT31;56477;52.742;15.242;2023-06-14T12:28:08;23.73;49.49
69335;SHT31;56477;52.742;15.242;2023-06-14T12:30:35;24.35;49.10
69335;SHT31;56477;52.742;15.242;2023-06-14T12:33:03;25.07;46.82
69335;SHT31;56477;52.742;15.242;2023-06-14T12:35:31;25.47;46.25
69335;SHT31;56477;52.742;15.242;2023-06-14T12:38:00;26.19;45.23
69335;SHT31;56477;52.742;15.242;2023-06-14T12:40:26;26.08;45.28
69335;SHT31;56477;52.742;15.242;2023-06-14T12:42:52;25.85;45.68
69335;SHT31;56477;52.742;15.242;2023-06-14T12:45:18;25.31;44.96
69335;SHT31;56477;52.742;15.242;2023-06-14T12:47:44;24.96;44.39
69335;SHT31;56477;52.742;15.242;2023-06-14T12:50:12;24.58;45.38
69335;SHT31;56477;52.742;15.242;2023-06-14T12:52:38;24.28;46.17
69335;SHT31;56477;52.742;15.242;2023-06-14T12:55:04;24.10;47.06
69335;SHT31;56477;52.742;15.242;2023-06-14T12:57:33;24.04;45.05
69335;SHT31;56477;52.742;15.242;2023-06-14T13:00:02;24.24;45.63
69335;SHT31;56477;52.742;15.242;2023-06-14T13:02:29;25.07;45.02
69335;SHT31;56477;52.742;15.242;2023-06-14T13:04:55;25.82;43.56
69335;SHT31;56477;52.742;15.242;2023-06-14T13:07:21;25.63;40.16
69335;SHT31;56477;52.742;15.242;2023-06-14T13:09:47;25.02;41.01
69335;SHT31;56477;52.742;15.242;2023-06-14T13:12:13;25.70;41.43
69335;SHT31;56477;52.742;15.242;2023-06-14T13:14:42;26.11;39.99
69335;SHT31;56477;52.742;15.242;2023-06-14T13:17:09;25.53;40.31
69335;SHT31;56477;52.742;15.242;2023-06-14T13:19:35;26.18;40.21
69335;SHT31;56477;52.742;15.242;2023-06-14T13:22:01;26.50;40.19
69335;SHT31;56477;52.742;15.242;2023-06-14T13:24:28;26.21;41.55
69335;SHT31;56477;52.742;15.242;2023-06-14T13:26:56;25.99;41.48
69335;SHT31;56477;52.742;15.242;2023-06-14T13:29:23;26.76;40.93
69335;SHT31;56477;52.742;15.242;2023-06-14T13:31:50;27.16;39.64
69335;SHT31;56477;52.742;15.242;2023-06-14T13:34:16;27.00;39.71
69335;SHT31;56477;52.742;15.242;2023-06-14T13:36:42;26.86;39.48
69335;SHT31;56477;52.742;15.242;2023-06-14T13:39:08;27.07;39.79
69335;SHT31;56477;52.742;15.242;2023-06-14T13:41:34;26.80;39.97
69335;SHT31;56477;52.742;15.242;2023-06-14T13:44:00;26.52;40.88
69335;SHT31;56477;52.742;15.242;2023-06-14T13:46:30;26.42;40.38
69335;SHT31;56477;52.742;15.242;2023-06-14T13:48:56;26.31;40.25
69335;SHT31;56477;52.742;15.242;2023-06-14T13:51:24;26.69;41.06
69335;SHT31;56477;52.742;15.242;2023-06-14T13:53:52;26.42;40.30
69335;SHT31;56477;52.742;15.242;2023-06-14T13:56:19;25.48;40.87
69335;SHT31;56477;52.742;15.242;2023-06-14T13:58:44;25.33;41.46
69335;SHT31;56477;52.742;15.242;2023-06-14T14:01:11;24.80;42.86
69335;SHT31;56477;52.742;15.242;2023-06-14T14:03:37;24.06;43.09
69335;SHT31;56477;52.742;15.242;2023-06-14T14:06:04;23.86;42.92
69335;SHT31;56477;52.742;15.242;2023-06-14T14:08:31;23.69;44.29
69335;SHT31;56477;52.742;15.242;2023-06-14T14:10:58;23.46;44.02
69335;SHT31;56477;52.742;15.242;2023-06-14T14:13:24;23.35;44.24
69335;SHT31;56477;52.742;15.242;2023-06-14T14:15:51;23.42;44.56
69335;SHT31;56477;52.742;15.242;2023-06-14T14:18:16;23.29;45.40
69335;SHT31;56477;52.742;15.242;2023-06-14T14:20:43;23.39;45.63
69335;SHT31;56477;52.742;15.242;2023-06-14T14:23:09;23.81;44.67
69335;SHT31;56477;52.742;15.242;2023-06-14T14:25:35;24.14;44.57
69335;SHT31;56477;52.742;15.242;2023-06-14T14:28:03;24.14;44.20
69335;SHT31;56477;52.742;15.242;2023-06-14T14:30:30;24.30;43.76
69335;SHT31;56477;52.742;15.242;2023-06-14T14:32:56;24.44;43.69
69335;SHT31;56477;52.742;15.242;2023-06-14T14:35:22;24.67;42.12
69335;SHT31;56477;52.742;15.242;2023-06-14T14:37:50;24.41;42.73
69335;SHT31;56477;52.742;15.242;2023-06-14T14:40:16;24.01;43.64
69335;SHT31;56477;52.742;15.242;2023-06-14T14:42:42;23.74;44.35
69335;SHT31;56477;52.742;15.242;2023-06-14T14:45:09;23.53;44.79
69335;SHT31;56477;52.742;15.242;2023-06-14T14:47:35;23.41;45.26
69335;SHT31;56477;52.742;15.242;2023-06-14T14:50:01;23.15;46.05
69335;SHT31;56477;52.742;15.242;2023-06-14T14:52:27;23.19;45.99
69335;SHT31;56477;52.742;15.242;2023-06-14T14:54:53;23.14;45.91
69335;SHT31;56477;52.742;15.242;2023-06-14T14:57:19;23.07;46.76
69335;SHT31;56477;52.742;15.242;2023-06-14T14:59:45;23.01;46.82
69335;SHT31;56477;52.742;15.242;2023-06-14T15:02:11;22.81;47.10
69335;SHT31;56477;52.742;15.242;2023-06-14T15:04:37;22.64;46.65
69335;SHT31;56477;52.742;15.242;2023-06-14T15:07:03;22.50;47.29
69335;SHT31;56477;52.742;15.242;2023-06-14T15:09:29;22.54;47.26
69335;SHT31;56477;52.742;15.242;2023-06-14T15:11:55;22.46;47.05
69335;SHT31;56477;52.742;15.242;2023-06-14T15:14:21;22.36;47.38
69335;SHT31;56477;52.742;15.242;2023-06-14T15:16:47;22.43;47.78
69335;SHT31;56477;52.742;15.242;2023-06-14T15:19:13;22.40;47.76
69335;SHT31;56477;52.742;15.242;2023-06-14T15:21:39;22.44;47.89
69335;SHT31;56477;52.742;15.242;2023-06-14T15:24:06;22.44;48.36
69335;SHT31;56477;52.742;15.242;2023-06-14T15:26:32;22.29;47.76
69335;SHT31;56477;52.742;15.242;2023-06-14T15:28:58;22.26;48.03
69335;SHT31;56477;52.742;15.242;2023-06-14T15:31:23;22.22;48.66
69335;SHT31;56477;52.742;15.242;2023-06-14T15:33:53;22.28;48.30